Time;durP1;ratioP1;P1;durP2;ratioP2;P2;SDS_P1;SDS_P2;PMS_P1;PMS_P2;Temp;Humidity;BMP_temperature;BMP_pressure;BME280_temperature;BME280_humidity;BME280_pressure;Samples;Min_cycle;Max_cycle;Signal;HPM_P1;HPM_P2
2022/10/02 00:02:25;;;;;;;;;5.00;3.00;;;;;19.01;91.43;101645.69;5025797;28;45642;-78
2022/10/02 00:05:14;;;;;;;;;4.33;2.67;;;;;18.99;91.16;101649.69;5037276;28;45480;-77
2022/10/02 00:07:45;;;;;;;;;4.33;4.33;;;;;18.99;93.10;101649.69;5042276;28;45718;-77
2022/10/02 00:10:15;;;;;;;;;3.67;3.67;;;;;18.85;98.15;101653.22;5050047;28;44747;-77
2022/10/02 00:12:44;;;;;;;;;5.00;5.00;;;;;18.77;100.00;101650.50;5035482;28;45492;-78
2022/10/02 00:15:17;;;;;;;;;5.33;3.33;;;;;18.69;100.00;101645.03;5053739;28;45511;-77
2022/10/02 00:17:47;;;;;;;;;4.00;2.67;;;;;18.82;100.00;101661.81;5029739;28;46226;-77
2022/10/02 00:20:16;;;;;;;;;4.67;3.67;;;;;18.81;100.00;101660.09;5024742;28;45492;-78
2022/10/02 00:23:03;;;;;;;;;5.00;3.00;;;;;18.77;100.00;101661.50;5032676;28;45421;-78
2022/10/02 00:25:39;;;;;;;;;4.00;4.00;;;;;18.81;100.00;101669.22;5032334;28;45399;-78
2022/10/02 00:28:29;;;;;;;;;5.00;3.00;;;;;18.81;100.00;101676.63;5027359;28;45537;-75
2022/10/02 00:31:12;;;;;;;;;9.67;6.33;;;;;18.84;100.00;101673.53;5028422;28;45409;-77
2022/10/02 00:34:00;;;;;;;;;11.00;6.00;;;;;18.82;100.00;101673.69;5050585;28;45516;-75
2022/10/02 00:36:25;;;;;;;;;4.33;4.33;;;;;18.84;100.00;101670.78;5032792;28;45451;-78
2022/10/02 00:39:14;;;;;;;;;6.33;4.33;;;;;18.73;100.00;101650.00;5031212;28;46434;-78
2022/10/02 00:41:45;;;;;;;;;5.33;4.67;;;;;18.88;100.00;101663.84;5028256;28;45724;-77
2022/10/02 00:44:35;;;;;;;;;3.00;3.00;;;;;18.88;100.00;101663.84;5033085;28;45475;-77
2022/10/02 00:47:06;;;;;;;;;4.00;4.00;;;;;18.91;100.00;101660.75;5034704;28;45389;-77
2022/10/02 00:49:50;;;;;;;;;5.67;4.67;;;;;18.91;100.00;101669.00;5026121;28;46778;-77
2022/10/02 00:52:18;;;;;;;;;5.00;4.00;;;;;18.88;100.00;101677.63;5046305;28;45381;-76
2022/10/02 00:54:58;;;;;;;;;4.67;4.67;;;;;18.82;100.00;101668.19;5026347;28;45454;-76
2022/10/02 00:57:58;;;;;;;;;3.00;3.00;;;;;18.85;100.00;101675.25;5034151;28;45452;-77
2022/10/02 01:00:23;;;;;;;;;5.33;4.00;;;;;18.86;100.00;101676.94;5033393;28;45474;-78
2022/10/02 01:03:18;;;;;;;;;5.33;4.00;;;;;18.89;100.00;101677.44;5031449;28;45540;-78
2022/10/02 01:05:44;;;;;;;;;4.00;4.00;;;;;18.82;100.00;101664.56;5033644;28;45318;-77
2022/10/02 01:08:09;;;;;;;;;6.00;4.00;;;;;18.93;100.00;101684.28;5047084;28;45616;-77
2022/10/02 01:10:37;;;;;;;;;4.67;3.00;;;;;18.84;100.00;101663.38;5024169;28;46615;-77
2022/10/02 01:13:02;;;;;;;;;9.00;4.67;;;;;18.80;100.00;101656.50;5034428;28;45376;-77
2022/10/02 01:15:35;;;;;;;;;4.00;4.00;;;;;18.77;100.00;101650.50;5022388;28;45659;-77
2022/10/02 01:18:03;;;;;;;;;9.33;4.00;;;;;18.77;100.00;101656.88;5032695;28;45413;-77
2022/10/02 01:20:34;;;;;;;;;6.00;4.33;;;;;18.73;100.00;101677.53;5026821;28;47866;-76
2022/10/02 01:23:12;;;;;;;;;4.00;4.00;;;;;18.72;100.00;101674.94;5032367;28;45381;-76
2022/10/02 01:25:38;;;;;;;;;6.00;3.00;;;;;18.67;100.00;101669.97;5026520;28;45875;-76
2022/10/02 01:28:04;;;;;;;;;4.00;4.00;;;;;18.51;100.00;101670.00;5037031;28;45533;-76
2022/10/02 01:30:32;;;;;;;;;4.33;4.33;;;;;18.39;100.00;101669.53;5039819;28;45618;-76
2022/10/02 01:33:01;;;;;;;;;5.33;4.33;;;;;18.49;100.00;101681.19;5039837;28;45546;-76
2022/10/02 01:35:30;;;;;;;;;3.33;3.33;;;;;18.45;100.00;101673.47;5034946;28;45396;-76
2022/10/02 01:37:57;;;;;;;;;4.00;4.00;;;;;18.41;100.00;101667.44;5038583;28;45511;-76
2022/10/02 01:40:34;;;;;;;;;5.67;4.00;;;;;18.39;100.00;101663.19;5033846;28;48535;-75
2022/10/02 01:43:19;;;;;;;;;4.00;4.00;;;;;18.28;100.00;101658.91;5033178;28;45301;-77
2022/10/02 01:46:02;;;;;;;;;5.67;3.67;;;;;18.37;100.00;101671.59;5034511;28;45305;-77
2022/10/02 01:48:40;;;;;;;;;4.00;4.00;;;;;18.31;100.00;101682.47;5030714;28;45471;-75
2022/10/02 01:51:47;;;;;;;;;7.33;5.00;;;;;18.13;100.00;101674.41;5034732;28;48337;-77
2022/10/02 01:54:49;;;;;;;;;5.33;3.67;;;;;18.19;100.00;101668.25;5030145;28;45584;-77
2022/10/02 01:57:38;;;;;;;;;4.00;4.00;;;;;18.24;100.00;101658.41;5033898;28;45455;-75
2022/10/02 02:00:07;;;;;;;;;8.00;5.00;;;;;18.17;100.00;101664.78;5023930;28;45414;-75
2022/10/02 02:02:35;;;;;;;;;3.67;3.33;;;;;18.09;100.00;101667.56;5037574;28;46783;-74
2022/10/02 02:05:11;;;;;;;;;4.00;4.00;;;;;18.10;100.00;101658.28;5048186;28;45492;-75
2022/10/02 02:07:40;;;;;;;;;9.00;4.00;;;;;18.17;100.00;101656.53;5044495;28;45308;-76
2022/10/02 02:10:40;;;;;;;;;6.00;4.33;;;;;18.22;100.00;101657.72;5047634;28;45428;-76
2022/10/02 02:13:34;;;;;;;;;3.00;3.00;;;;;18.29;100.00;101652.38;5007861;28;45622;-75
2022/10/02 02:16:10;;;;;;;;;5.00;3.00;;;;;18.35;100.00;101657.16;5029915;28;45366;-75
2022/10/02 02:19:13;;;;;;;;;3.33;3.00;;;;;18.32;100.00;101649.28;5038446;28;45370;-76
2022/10/02 02:21:43;;;;;;;;;4.67;3.00;;;;;18.21;100.00;101631.25;5047041;28;45563;-76
2022/10/02 02:24:16;;;;;;;;;3.67;3.00;;;;;18.19;100.00;101635.22;5040983;28;46872;-76
2022/10/02 02:26:44;;;;;;;;;3.67;3.67;;;;;18.16;100.00;101641.06;5039077;28;45422;-76
2022/10/02 02:29:12;;;;;;;;;4.00;4.00;;;;;18.23;100.00;101637.44;5046653;28;45387;-76
2022/10/02 02:31:51;;;;;;;;;5.00;3.33;;;;;18.19;100.00;101626.97;5055527;28;44838;-75
2022/10/02 02:34:22;;;;;;;;;4.33;3.33;;;;;18.16;100.00;101630.06;5034266;28;47526;-75
2022/10/02 02:36:54;;;;;;;;;4.00;4.00;;;;;18.28;100.00;101631.41;5042431;28;45353;-76
2022/10/02 02:39:33;;;;;;;;;3.00;3.00;;;;;18.30;100.00;101634.84;5038341;28;45389;-75
2022/10/02 02:42:02;;;;;;;;;2.00;2.00;;;;;18.32;100.00;101630.03;5032405;28;45233;-76
2022/10/02 02:44:34;;;;;;;;;3.00;3.00;;;;;18.31;100.00;101625.56;5030360;28;46643;-76
2022/10/02 02:47:06;;;;;;;;;3.33;2.00;;;;;18.26;100.00;101619.72;5039638;28;45430;-76
2022/10/02 02:49:54;;;;;;;;;5.00;4.00;;;;;18.26;100.00;101622.47;5037298;28;45357;-75
2022/10/02 02:52:33;;;;;;;;;2.00;2.00;;;;;18.18;100.00;101608.75;5039183;28;45382;-76
2022/10/02 02:55:08;;;;;;;;;3.00;3.00;;;;;18.29;100.00;101617.47;5027484;28;46298;-75
2022/10/02 02:57:47;;;;;;;;;3.33;2.00;;;;;18.32;100.00;101619.00;5035733;28;45480;-77
2022/10/02 03:00:18;;;;;;;;;2.00;2.00;;;;;18.28;100.00;101612.13;5025543;28;45236;-77
2022/10/02 03:02:43;;;;;;;;;3.00;3.00;;;;;18.29;100.00;101609.22;5039273;28;45479;-75
2022/10/02 03:05:15;;;;;;;;;5.00;2.00;;;;;18.21;100.00;101605.63;5042457;28;45525;-75
2022/10/02 03:07:50;;;;;;;;;1.33;1.33;;;;;18.19;100.00;101593.97;5041600;28;45509;-75
2022/10/02 03:10:22;;;;;;;;;2.00;2.00;;;;;18.25;100.00;101594.13;5039451;28;45240;-76
2022/10/02 03:13:14;;;;;;;;;2.00;2.00;;;;;18.23;100.00;101606.31;5040088;28;45294;-77
2022/10/02 03:15:57;;;;;;;;;1.67;1.67;;;;;18.29;100.00;101602.84;5030636;28;45671;-77
2022/10/02 03:18:37;;;;;;;;;4.00;2.00;;;;;18.28;100.00;101603.88;5037532;28;45335;-76
2022/10/02 03:21:16;;;;;;;;;2.00;2.00;;;;;18.27;100.00;101599.41;5032624;28;45557;-77
2022/10/02 03:23:57;;;;;;;;;6.33;2.67;;;;;18.25;100.00;101593.25;5031519;28;45341;-76
2022/10/02 03:26:58;;;;;;;;;4.00;4.00;;;;;18.28;100.00;101595.63;5034942;28;45389;-76
2022/10/02 03:29:34;;;;;;;;;2.00;2.00;;;;;18.26;100.00;101590.31;5043658;28;45519;-77
2022/10/02 03:32:02;;;;;;;;;5.67;2.67;;;;;18.23;100.00;101581.56;5040890;28;45366;-76
2022/10/02 03:34:31;;;;;;;;;6.00;4.33;;;;;18.27;100.00;101591.16;5038349;28;45665;-76
2022/10/02 03:36:57;;;;;;;;;2.33;2.33;;;;;18.24;100.00;101573.13;5041076;28;45378;-76
2022/10/02 03:39:22;;;;;;;;;5.33;3.67;;;;;18.27;100.00;101583.78;5041627;28;45629;-76
2022/10/02 03:41:47;;;;;;;;;3.00;3.00;;;;;18.15;100.00;101556.84;5034883;28;45801;-77
2022/10/02 03:44:13;;;;;;;;;2.67;2.67;;;;;18.25;100.00;101582.25;5031108;28;45553;-76
2022/10/02 03:46:38;;;;;;;;;1.00;1.00;;;;;18.11;100.00;101556.34;5042616;28;46341;-76
2022/10/02 03:49:03;;;;;;;;;3.00;3.00;;;;;18.24;100.00;101575.03;5029324;28;45360;-76
2022/10/02 03:51:29;;;;;;;;;4.00;2.00;;;;;18.27;100.00;101574.66;5040939;28;45302;-76
2022/10/02 03:53:55;;;;;;;;;3.00;3.00;;;;;18.33;100.00;101575.84;5042777;28;45271;-76
2022/10/02 03:56:49;;;;;;;;;2.00;2.00;;;;;18.39;100.00;101578.75;5030476;28;45510;-76
2022/10/02 03:59:30;;;;;;;;;3.67;2.00;;;;;18.40;100.00;101576.84;5035600;28;45401;-76
2022/10/02 04:01:58;;;;;;;;;2.00;2.00;;;;;18.36;100.00;101564.47;5033031;28;45500;-76
2022/10/02 04:04:28;;;;;;;;;1.00;1.00;;;;;18.41;100.00;101573.06;5033071;28;45330;-76
2022/10/02 04:07:05;;;;;;;;;1.00;1.00;;;;;18.40;100.00;101566.72;5041160;28;48451;-76
2022/10/02 04:09:49;;;;;;;;;1.00;1.00;;;;;18.46;100.00;101576.13;5040312;28;45363;-76
2022/10/02 04:12:39;;;;;;;;;2.00;2.00;;;;;18.49;100.00;101576.63;5036073;28;45323;-76
2022/10/02 04:15:22;;;;;;;;;1.67;1.67;;;;;18.53;100.00;101574.38;5023217;28;45331;-76
2022/10/02 04:17:54;;;;;;;;;1.00;1.00;;;;;18.47;100.00;101566.84;5039738;28;48368;-76
2022/10/02 04:20:27;;;;;;;;;1.67;1.67;;;;;18.51;100.00;101580.06;5030241;28;45533;-77
2022/10/02 04:22:58;;;;;;;;;1.00;1.00;;;;;18.45;100.00;101564.28;5032765;28;45371;-76
2022/10/02 04:25:33;;;;;;;;;1.00;1.00;;;;;18.48;100.00;101563.88;5037926;28;45276;-76
2022/10/02 04:28:04;;;;;;;;;1.00;1.00;;;;;18.53;100.00;101563.38;5055229;28;47523;-76
2022/10/02 04:30:29;;;;;;;;;0.00;0.00;;;;;18.54;100.00;101565.94;5041754;28;45388;-77
2022/10/02 04:33:11;;;;;;;;;0.00;0.00;;;;;18.44;100.00;101562.53;5056911;28;45367;-76
2022/10/02 04:35:51;;;;;;;;;0.00;0.00;;;;;18.54;100.00;101573.34;5024820;28;45521;-77
2022/10/02 04:38:44;;;;;;;;;1.00;1.00;;;;;18.56;100.00;101583.16;5037601;28;46339;-76
2022/10/02 04:41:18;;;;;;;;;0.33;0.33;;;;;18.58;100.00;101589.34;5036166;28;45335;-76
2022/10/02 04:43:53;;;;;;;;;0.00;0.00;;;;;18.57;100.00;101584.88;5036775;28;45459;-76
2022/10/02 04:46:27;;;;;;;;;2.00;2.00;;;;;18.51;100.00;101573.69;5037939;28;45164;-76
2022/10/02 04:49:15;;;;;;;;;2.00;2.00;;;;;18.59;100.00;101585.56;5029974;28;45339;-76
2022/10/02 04:51:50;;;;;;;;;1.00;1.00;;;;;18.60;100.00;101584.53;5030251;28;45264;-76
2022/10/02 04:54:52;;;;;;;;;2.00;1.00;;;;;18.64;100.00;101580.34;5032155;28;45662;-76
2022/10/02 04:58:01;;;;;;;;;0.00;0.00;;;;;18.59;100.00;101584.69;5036208;28;45531;-76
2022/10/02 05:00:35;;;;;;;;;1.67;0.00;;;;;18.58;100.00;101591.22;5033236;28;46563;-77
2022/10/02 05:03:38;;;;;;;;;2.00;0.00;;;;;18.61;100.00;101591.75;5046368;28;45319;-76
2022/10/02 05:06:29;;;;;;;;;0.00;0.00;;;;;18.62;100.00;101589.84;5052031;28;45589;-77
2022/10/02 05:09:03;;;;;;;;;0.00;0.00;;;;;18.64;100.00;101594.13;5037322;28;45515;-77
2022/10/02 05:11:35;;;;;;;;;0.67;0.00;;;;;18.59;100.00;101596.56;5029933;28;46673;-76
2022/10/02 05:14:09;;;;;;;;;0.00;0.00;;;;;18.60;100.00;101590.03;5033172;28;45257;-77
2022/10/02 05:16:40;;;;;;;;;0.00;0.00;;;;;18.58;100.00;101592.09;5035814;28;45338;-77
2022/10/02 05:19:35;;;;;;;;;0.00;0.00;;;;;18.57;100.00;101587.63;5041411;28;45412;-76
2022/10/02 05:22:03;;;;;;;;;0.00;0.00;;;;;18.52;100.00;101594.69;5040398;28;46043;-77
2022/10/02 05:24:59;;;;;;;;;1.67;0.00;;;;;18.51;100.00;101595.72;5032775;28;45196;-77
2022/10/02 05:28:09;;;;;;;;;0.00;0.00;;;;;18.54;100.00;101595.34;5036022;28;45156;-75
2022/10/02 05:30:48;;;;;;;;;0.00;0.00;;;;;18.47;100.00;101597.13;4975896;28;45511;-75
2022/10/02 05:33:27;;;;;;;;;0.00;0.00;;;;;18.46;100.00;101593.50;4976274;28;45640;-75
2022/10/02 05:36:01;;;;;;;;;0.00;0.00;;;;;18.43;100.00;101601.25;5031811;28;45249;-75
2022/10/02 05:39:02;;;;;;;;;0.00;0.00;;;;;18.40;100.00;101610.72;5046111;28;45389;-75
2022/10/02 05:41:57;;;;;;;;;0.67;0.00;;;;;18.34;100.00;101616.09;5038175;28;45338;-75
2022/10/02 05:44:36;;;;;;;;;0.00;0.00;;;;;18.29;100.00;101608.34;5034708;28;47161;-75
2022/10/02 05:47:23;;;;;;;;;0.00;0.00;;;;;18.27;100.00;101610.41;5037859;28;45805;-75
2022/10/02 05:49:57;;;;;;;;;0.00;0.00;;;;;18.30;100.00;101621.09;5028980;28;45476;-75
2022/10/02 05:52:31;;;;;;;;;0.00;0.00;;;;;18.36;100.00;101614.00;5036035;28;45564;-75
2022/10/02 05:55:12;;;;;;;;;0.00;0.00;;;;;18.45;100.00;101629.44;5035881;28;46424;-75
2022/10/02 05:57:44;;;;;;;;;0.00;0.00;;;;;18.46;100.00;101629.28;5040231;28;45439;-75
2022/10/02 06:00:28;;;;;;;;;0.00;0.00;;;;;18.42;100.00;101611.38;5035396;28;45537;-75
2022/10/02 06:03:25;;;;;;;;;0.00;0.00;;;;;18.51;100.00;101635.09;5039704;28;45476;-75
2022/10/02 06:05:56;;;;;;;;;0.00;0.00;;;;;18.54;100.00;101629.25;5037997;28;45576;-75
2022/10/02 06:08:35;;;;;;;;;0.00;0.00;;;;;18.55;100.00;101630.97;5038420;28;45377;-74
2022/10/02 06:11:39;;;;;;;;;0.00;0.00;;;;;18.53;100.00;101618.41;5037894;28;45473;-74
2022/10/02 06:14:11;;;;;;;;;0.00;0.00;;;;;18.66;100.00;101624.22;5011357;28;45760;-74
2022/10/02 06:16:48;;;;;;;;;0.00;0.00;;;;;18.72;100.00;101625.38;5036780;28;45687;-76
2022/10/02 06:19:22;;;;;;;;;0.00;0.00;;;;;18.68;100.00;101624.91;5042772;28;45400;-75
2022/10/02 06:22:10;;;;;;;;;0.00;0.00;;;;;18.65;100.00;101620.59;5041423;28;45551;-75
2022/10/02 06:24:42;;;;;;;;;0.00;0.00;;;;;18.72;100.00;101625.38;5043846;28;45548;-74
2022/10/02 06:27:21;;;;;;;;;0.00;0.00;;;;;18.74;100.00;101628.81;5038570;28;48302;-74
2022/10/02 06:29:59;;;;;;;;;0.00;0.00;;;;;18.69;100.00;101614.75;5033126;28;45505;-74
2022/10/02 06:32:43;;;;;;;;;0.00;0.00;;;;;18.77;100.00;101629.34;5032877;28;45500;-76
2022/10/02 06:35:14;;;;;;;;;0.00;0.00;;;;;18.76;100.00;101626.75;5033474;28;45271;-76
2022/10/02 06:37:55;;;;;;;;;0.00;0.00;;;;;18.71;100.00;101621.78;5033445;28;47433;-76
2022/10/02 06:40:36;;;;;;;;;0.00;0.00;;;;;18.76;100.00;101626.75;5028287;28;45263;-76
2022/10/02 06:43:12;;;;;;;;;0.00;0.00;;;;;18.87;100.00;101629.09;5043718;28;45375;-76
2022/10/02 06:45:57;;;;;;;;;1.00;1.00;;;;;18.92;100.00;101629.44;5036742;28;45427;-76
2022/10/02 06:48:52;;;;;;;;;0.00;0.00;;;;;18.92;100.00;101622.00;5052487;28;46620;-76
2022/10/02 06:51:46;;;;;;;;;0.00;0.00;;;;;18.91;100.00;101627.69;5041421;28;45735;-76
2022/10/02 06:54:32;;;;;;;;;0.00;0.00;;;;;18.90;100.00;101634.25;5037507;28;45495;-74
2022/10/02 06:57:22;;;;;;;;;0.00;0.00;;;;;18.87;100.00;101626.34;5043542;28;45541;-76
2022/10/02 07:00:13;;;;;;;;;0.67;0.67;;;;;18.86;100.00;101633.72;5041521;28;45426;-76
2022/10/02 07:03:22;;;;;;;;;0.00;0.00;;;;;18.80;100.00;101622.59;5029282;28;45375;-75
2022/10/02 07:06:21;;;;;;;;;0.00;0.00;;;;;18.92;100.00;101627.50;5044550;28;45413;-75
2022/10/02 07:09:15;;;;;;;;;0.00;0.00;;;;;19.03;100.00;101624.34;5029820;28;45457;-75
2022/10/02 07:12:18;;;;;;;;;0.00;0.00;;;;;19.04;100.00;101631.56;5040278;28;45472;-75
2022/10/02 07:14:50;;;;;;;;;0.00;0.00;;;;;19.06;100.00;101628.66;5030289;28;45407;-75
2022/10/02 07:17:21;;;;;;;;;0.00;0.00;;;;;19.02;100.00;101617.13;5040693;28;45432;-74
2022/10/02 07:20:16;;;;;;;;;0.00;0.00;;;;;19.12;100.00;101608.63;5043532;28;45401;-75
2022/10/02 07:22:50;;;;;;;;;0.00;0.00;;;;;19.20;100.00;101611.31;5032965;28;46916;-76
2022/10/02 07:25:34;;;;;;;;;0.00;0.00;;;;;19.23;100.00;101615.59;5041243;28;45392;-76
2022/10/02 07:28:26;;;;;;;;;0.00;0.00;;;;;19.21;100.00;101610.28;5037254;28;45244;-74
2022/10/02 07:30:57;;;;;;;;;1.00;0.00;;;;;19.30;100.00;101622.06;5032924;28;45307;-76
2022/10/02 07:33:29;;;;;;;;;1.67;0.00;;;;;19.24;100.00;101629.19;5045871;28;45586;-75
2022/10/02 07:36:23;;;;;;;;;0.00;0.00;;;;;19.25;100.00;101628.16;5032697;28;45490;-76
2022/10/02 07:39:10;;;;;;;;;1.00;0.33;;;;;19.26;100.00;101626.25;5036140;28;45751;-76
2022/10/02 07:41:57;;;;;;;;;0.00;0.00;;;;;19.35;100.00;101630.66;5034528;28;45316;-76
2022/10/02 07:44:45;;;;;;;;;0.00;0.00;;;;;19.33;100.00;101608.81;5038816;28;46448;-76
2022/10/02 07:47:28;;;;;;;;;0.00;0.00;;;;;19.51;100.00;101637.94;5041043;28;45406;-76
2022/10/02 07:50:21;;;;;;;;;0.00;0.00;;;;;19.45;100.00;101634.00;5028856;28;45470;-74
2022/10/02 07:52:57;;;;;;;;;1.00;1.00;;;;;19.53;100.00;101635.88;5035922;28;45377;-75
2022/10/02 07:55:24;;;;;;;;;0.00;0.00;;;;;19.61;100.00;101638.56;5034882;28;46773;-74
2022/10/02 07:58:04;;;;;;;;;1.33;0.00;;;;;19.60;100.00;101639.59;5037387;28;45421;-74
2022/10/02 08:00:38;;;;;;;;;0.00;0.00;;;;;19.56;100.00;101627.25;5031516;28;45413;-74
2022/10/02 08:03:17;;;;;;;;;2.67;2.67;;;;;19.68;100.00;101650.56;5034584;28;45529;-75
2022/10/02 08:05:50;;;;;;;;;1.67;0.00;;;;;19.77;100.00;101654.97;5037533;28;46499;-75
2022/10/02 08:08:57;;;;;;;;;0.00;0.00;;;;;19.86;100.00;101648.34;5051998;28;46050;-76
2022/10/02 08:11:29;;;;;;;;;1.33;0.00;;;;;19.96;100.00;101665.47;5035196;28;45522;-75
2022/10/02 08:14:08;;;;;;;;;2.67;1.67;;;;;20.03;100.00;101662.81;5039101;28;45313;-75
2022/10/02 08:16:42;;;;;;;;;0.00;0.00;;;;;20.07;100.00;101665.00;5031426;28;47659;-75
2022/10/02 08:19:15;;;;;;;;;1.33;1.00;;;;;20.09;100.00;101662.06;5031403;28;45376;-75
2022/10/02 08:21:47;;;;;;;;;0.67;0.00;;;;;20.10;100.00;101661.88;5037005;28;45421;-75
2022/10/02 08:24:21;;;;;;;;;0.00;0.00;;;;;20.12;100.00;101676.34;5041534;28;45301;-74
2022/10/02 08:26:54;;;;;;;;;3.00;3.00;;;;;19.96;100.00;101667.34;5041172;28;46211;-75
2022/10/02 08:29:44;;;;;;;;;3.33;1.67;;;;;20.03;100.00;101682.97;5033843;28;45362;-75
2022/10/02 08:32:11;;;;;;;;;3.33;2.00;;;;;20.13;100.00;101678.06;5035472;28;45517;-74
2022/10/02 08:34:37;;;;;;;;;2.00;2.00;;;;;20.13;100.00;101672.53;5032745;28;45392;-75
2022/10/02 08:37:18;;;;;;;;;2.00;2.00;;;;;20.13;100.00;101666.16;5033943;28;45576;-74
2022/10/02 08:40:27;;;;;;;;;2.67;2.33;;;;;20.43;100.00;101678.09;5026547;28;45299;-75
2022/10/02 08:43:07;;;;;;;;;2.00;2.00;;;;;20.48;100.00;101678.38;5034119;28;45507;-75
2022/10/02 08:46:05;;;;;;;;;2.67;1.33;;;;;20.47;100.00;101683.03;5039384;28;45199;-75
2022/10/02 08:49:08;;;;;;;;;0.67;0.67;;;;;20.79;100.00;101691.97;4999545;28;47184;-75
2022/10/02 08:51:52;;;;;;;;;3.33;2.00;;;;;20.43;100.00;101678.09;5028317;28;45559;-75
2022/10/02 08:54:40;;;;;;;;;4.67;1.67;;;;;20.51;100.00;101683.53;5034253;28;45331;-76
2022/10/02 08:57:15;;;;;;;;;2.00;2.00;;;;;20.74;100.00;101667.72;5040096;28;45808;-77
2022/10/02 08:59:59;;;;;;;;;2.00;2.00;;;;;20.75;100.00;101677.69;5053389;28;46132;-77
2022/10/02 09:02:31;;;;;;;;;1.67;1.00;;;;;20.83;100.00;101680.34;5033526;28;45391;-76
2022/10/02 09:05:18;;;;;;;;;4.00;2.33;;;;;20.97;100.00;101676.69;5032420;28;45363;-76
2022/10/02 09:08:10;;;;;;;;;3.67;3.00;;;;;20.93;100.00;101683.66;5037461;28;45370;-76
2022/10/02 09:10:48;;;;;;;;;2.00;1.33;;;;;20.70;100.00;101690.38;5042193;28;45505;-76
2022/10/02 09:13:16;;;;;;;;;3.00;2.00;;;;;20.62;100.00;101688.56;5039027;28;45442;-74
2022/10/02 09:16:17;;;;;;;;;1.00;1.00;;;;;20.69;100.00;101689.50;5027206;28;45373;-75
2022/10/02 09:19:04;;;;;;;;;3.67;2.67;;;;;20.73;100.00;101685.34;5029328;28;45623;-75
2022/10/02 09:21:35;;;;;;;;;4.67;4.00;;;;;20.75;100.00;101680.44;5035885;28;47939;-75
2022/10/02 09:24:39;;;;;;;;;4.00;3.00;;;;;20.73;100.00;101674.28;5031159;28;45312;-75
2022/10/02 09:27:41;;;;;;;;;4.67;4.67;;;;;20.85;100.00;101664.44;5040702;28;45541;-75
2022/10/02 09:30:22;;;;;;;;;2.67;2.67;;;;;20.76;100.00;101665.59;5024372;28;45384;-75
2022/10/02 09:33:15;;;;;;;;;6.33;2.00;;;;;20.98;100.00;101666.50;5040860;28;46243;-75
2022/10/02 09:36:11;;;;;;;;;4.00;4.00;;;;;21.03;100.00;101665.94;5042230;28;45469;-75
2022/10/02 09:39:13;;;;;;;;;2.00;2.00;;;;;21.00;100.00;101669.94;5029673;28;45181;-75
2022/10/02 09:41:59;;;;;;;;;5.00;3.33;;;;;21.03;100.00;101671.47;5042007;28;45215;-75
2022/10/02 09:44:57;;;;;;;;;7.67;4.67;;;;;21.04;100.00;101659.38;5027907;28;46471;-75
2022/10/02 09:48:03;;;;;;;;;4.00;3.00;;;;;21.10;100.00;101661.34;5039228;28;45659;-75
2022/10/02 09:50:33;;;;;;;;;3.33;3.33;;;;;21.39;100.00;101660.41;5037495;28;45414;-76
2022/10/02 09:53:32;;;;;;;;;13.33;12.67;;;;;21.49;100.00;101670.06;5039426;28;45322;-76
2022/10/02 09:56:10;;;;;;;;;8.00;7.00;;;;;21.72;100.00;101670.72;5051852;28;47766;-76
2022/10/02 09:58:56;;;;;;;;;4.00;2.33;;;;;21.63;100.00;101677.44;5032957;28;45325;-76
2022/10/02 10:01:49;;;;;;;;;3.67;2.00;;;;;21.79;100.00;101672.69;5028459;28;45379;-76
2022/10/02 10:04:45;;;;;;;;;2.67;2.00;;;;;21.73;100.00;101666.91;5037488;28;45366;-76
2022/10/02 10:07:29;;;;;;;;;1.67;1.67;;;;;21.94;100.00;101679.84;5032254;28;46781;-76
2022/10/02 10:10:32;;;;;;;;;0.33;0.00;;;;;22.06;100.00;101674.69;5037316;28;45390;-76
2022/10/02 10:13:07;;;;;;;;;2.67;1.00;;;;;21.93;100.00;101674.50;5042327;28;45298;-76
2022/10/02 10:15:57;;;;;;;;;0.00;0.00;;;;;21.93;100.00;101671.75;5043015;28;45433;-76
2022/10/02 10:19:01;;;;;;;;;2.67;2.00;;;;;22.11;100.00;101686.00;5037230;28;48488;-75
2022/10/02 10:21:46;;;;;;;;;3.00;1.33;;;;;22.35;100.00;101670.84;5027101;28;45480;-76
2022/10/02 10:24:42;;;;;;;;;3.00;1.00;;;;;22.47;100.00;101674.72;5025970;28;45346;-76
2022/10/02 10:27:56;;;;;;;;;1.67;1.67;;;;;22.53;100.00;101663.69;5039257;28;45693;-76
2022/10/02 10:30:42;;;;;;;;;0.67;0.67;;;;;22.86;100.00;101676.91;5033625;28;47020;-76
2022/10/02 10:33:16;;;;;;;;;1.00;1.00;;;;;22.82;100.00;101668.13;5030920;28;45438;-75
2022/10/02 10:35:57;;;;;;;;;1.33;0.67;;;;;23.16;100.00;101661.63;5034924;28;45272;-75
2022/10/02 10:38:49;;;;;;;;;0.00;0.00;;;;;23.48;100.00;101661.94;5029897;28;45596;-75
2022/10/02 10:41:46;;;;;;;;;0.00;0.00;;;;;23.50;98.10;101660.69;5043312;28;45645;-77
2022/10/02 10:44:18;;;;;;;;;0.00;0.00;;;;;23.41;97.51;101663.81;5037692;28;45332;-77
2022/10/02 10:47:06;;;;;;;;;1.00;1.00;;;;;23.51;97.28;101661.53;5032138;28;45435;-75
2022/10/02 10:49:56;;;;;;;;;0.00;0.00;;;;;23.49;94.50;101664.53;5044461;28;45318;-75
2022/10/02 10:52:37;;;;;;;;;1.00;1.00;;;;;23.22;96.71;101668.28;5035692;28;48499;-74
2022/10/02 10:55:45;;;;;;;;;1.00;1.00;;;;;22.99;97.61;101674.16;5051025;28;45312;-75
2022/10/02 10:58:30;;;;;;;;;2.00;1.00;;;;;22.76;100.00;101668.09;5033692;28;45520;-75
2022/10/02 11:01:08;;;;;;;;;0.33;0.33;;;;;22.97;99.81;101670.75;5042697;28;45545;-74
2022/10/02 11:03:50;;;;;;;;;1.00;1.00;;;;;22.86;97.82;101672.22;5052295;28;47723;-75
2022/10/02 11:06:50;;;;;;;;;1.00;1.00;;;;;23.11;96.99;101661.41;5040083;28;45395;-75
2022/10/02 11:09:54;;;;;;;;;4.00;4.00;;;;;23.29;96.77;101664.47;5034052;28;46265;-77
2022/10/02 11:12:50;;;;;;;;;7.33;6.33;;;;;23.34;95.96;101660.19;5034335;28;45445;-75
2022/10/02 11:15:47;;;;;;;;;6.00;5.33;;;;;23.49;95.55;101664.53;5053727;28;46503;-76
2022/10/02 11:18:38;;;;;;;;;3.00;3.00;;;;;23.30;94.24;101659.78;5039051;28;45437;-77
2022/10/02 11:21:50;;;;;;;;;3.00;2.00;;;;;23.15;94.96;101657.19;5029197;28;45474;-76
2022/10/02 11:24:54;;;;;;;;;1.00;1.00;;;;;23.13;95.97;101652.88;4980724;28;45522;-78
2022/10/02 11:27:25;;;;;;;;;0.00;0.00;;;;;22.97;96.28;101665.19;4978352;28;47549;-77
2022/10/02 11:29:58;;;;;;;;;1.67;0.33;;;;;22.53;97.22;101662.84;5016148;28;45492;-75
2022/10/02 11:32:55;;;;;;;;;1.33;1.33;;;;;22.38;100.00;101665.72;5038793;28;45403;-76
2022/10/02 11:35:23;;;;;;;;;1.00;1.00;;;;;22.40;100.00;101660.84;5035827;28;45452;-76
2022/10/02 11:38:21;;;;;;;;;0.00;0.00;;;;;22.24;100.00;101668.63;5039520;28;47554;-76
2022/10/02 11:41:15;;;;;;;;;0.67;0.67;;;;;21.97;100.00;101676.72;5044892;28;45357;-76
2022/10/02 11:43:58;;;;;;;;;1.67;1.00;;;;;22.11;100.00;101675.78;5047739;28;45455;-76
2022/10/02 11:46:42;;;;;;;;;0.00;0.00;;;;;22.01;100.00;101675.25;5035394;28;45460;-76
2022/10/02 11:49:39;;;;;;;;;0.00;0.00;;;;;21.75;100.00;101684.19;5051181;28;48117;-76
2022/10/02 11:52:10;;;;;;;;;0.67;0.67;;;;;21.54;100.00;101689.72;5030604;28;45440;-76
2022/10/02 11:55:13;;;;;;;;;0.00;0.00;;;;;21.51;100.00;101695.63;5043220;28;45483;-77
2022/10/02 11:57:59;;;;;;;;;2.33;1.00;;;;;21.11;100.00;101701.75;5035798;28;45643;-76
2022/10/02 12:00:44;;;;;;;;;0.00;0.00;;;;;21.03;100.00;101707.38;5035938;28;46110;-76
2022/10/02 12:03:35;;;;;;;;;0.00;0.00;;;;;20.88;100.00;101705.50;5033057;28;45298;-76
2022/10/02 12:06:12;;;;;;;;;0.00;0.00;;;;;21.10;100.00;101700.03;5054559;28;45361;-77
2022/10/02 12:08:52;;;;;;;;;1.00;1.00;;;;;21.36;100.00;101703.97;5034259;28;45382;-77
2022/10/02 12:11:33;;;;;;;;;0.67;0.67;;;;;21.35;100.00;101702.25;5029028;28;45322;-76
2022/10/02 12:14:04;;;;;;;;;0.00;0.00;;;;;21.50;100.00;101707.75;5033800;28;45646;-76
2022/10/02 12:16:40;;;;;;;;;1.00;1.00;;;;;21.70;100.00;101706.03;5034353;28;45434;-76
2022/10/02 12:19:38;;;;;;;;;2.00;2.00;;;;;21.88;100.00;101697.25;5057652;28;45495;-74
2022/10/02 12:28:32;;;;;;;;;2.67;2.67;;;;;22.27;100.00;101677.38;5033231;28;45429;-76
2022/10/02 12:31:11;;;;;;;;;3.33;2.00;;;;;22.47;100.00;101670.06;5040040;28;45439;-76